sensor_id;sensor_type;location;lat;lon;timestamp;pressure;altitude;pressure_sealevel;temperature;humidity
29569;BME280;16501;51.462;14.346;2023-05-25T00:00:50;100865.91;;;8.00;85.94
29569;BME280;16501;51.462;14.346;2023-05-25T00:03:15;100870.81;;;7.96;87.34
29569;BME280;16501;51.462;14.346;2023-05-25T00:05:41;100890.84;;;8.07;87.90
29569;BME280;16501;51.462;14.346;2023-05-25T00:08:06;100885.25;;;8.07;87.62
29569;BME280;16501;51.462;14.346;2023-05-25T00:10:31;100909.31;;;8.18;87.21
29569;BME280;16501;51.462;14.346;2023-05-25T00:12:56;100886.66;;;7.99;86.69
29569;BME280;16501;51.462;14.346;2023-05-25T00:15:22;100908.28;;;8.11;86.45
29569;BME280;16501;51.462;14.346;2023-05-25T00:17:47;100870.41;;;7.81;87.03
29569;BME280;16501;51.462;14.346;2023-05-25T00:20:13;100884.34;;;7.81;87.47
29569;BME280;16501;51.462;14.346;2023-05-25T00:22:42;100867.03;;;7.73;87.34
29569;BME280;16501;51.462;14.346;2023-05-25T00:25:09;100907.03;;;8.00;86.86
29569;BME280;16501;51.462;14.346;2023-05-25T00:27:35;100900.03;;;7.91;87.43
29569;BME280;16501;51.462;14.346;2023-05-25T00:30:00;100872.50;;;7.77;87.18
29569;BME280;16501;51.462;14.346;2023-05-25T00:32:25;100874.06;;;7.78;87.40
29569;BME280;16501;51.462;14.346;2023-05-25T00:34:50;100879.75;;;7.74;87.89
29569;BME280;16501;51.462;14.346;2023-05-25T00:37:16;100894.03;;;7.77;87.95
29569;BME280;16501;51.462;14.346;2023-05-25T00:39:41;100866.59;;;7.59;88.15
29569;BME280;16501;51.462;14.346;2023-05-25T00:42:06;100893.78;;;7.71;88.26
29569;BME280;16501;51.462;14.346;2023-05-25T00:44:33;100907.75;;;7.71;88.57
29569;BME280;16501;51.462;14.346;2023-05-25T00:46:58;100888.03;;;7.62;88.08
29569;BME280;16501;51.462;14.346;2023-05-25T00:49:24;100902.50;;;7.73;87.65
29569;BME280;16501;51.462;14.346;2023-05-25T00:51:51;100906.53;;;7.55;87.54
29569;BME280;16501;51.462;14.346;2023-05-25T00:54:17;100876.44;;;7.47;87.85
29569;BME280;16501;51.462;14.346;2023-05-25T00:56:50;100909.41;;;7.68;88.11
29569;BME280;16501;51.462;14.346;2023-05-25T00:59:22;100904.88;;;7.58;88.10
29569;BME280;16501;51.462;14.346;2023-05-25T01:01:50;100891.88;;;7.51;89.04
29569;BME280;16501;51.462;14.346;2023-05-25T01:04:20;100882.91;;;7.44;88.72
29569;BME280;16501;51.462;14.346;2023-05-25T01:06:47;100915.53;;;7.63;89.13
29569;BME280;16501;51.462;14.346;2023-05-25T01:09:15;100917.97;;;7.61;89.00
29569;BME280;16501;51.462;14.346;2023-05-25T01:11:41;100917.25;;;7.57;89.41
29569;BME280;16501;51.462;14.346;2023-05-25T01:14:08;100923.19;;;7.59;90.76
29569;BME280;16501;51.462;14.346;2023-05-25T01:16:34;100918.94;;;7.54;92.10
29569;BME280;16501;51.462;14.346;2023-05-25T01:19:01;100894.50;;;7.42;92.37
29569;BME280;16501;51.462;14.346;2023-05-25T01:21:40;100872.34;;;7.18;92.02
29569;BME280;16501;51.462;14.346;2023-05-25T01:24:17;100908.91;;;7.41;91.16
29569;BME280;16501;51.462;14.346;2023-05-25T01:26:55;100887.44;;;7.21;91.00
29569;BME280;16501;51.462;14.346;2023-05-25T01:29:23;100906.28;;;7.33;90.21
29569;BME280;16501;51.462;14.346;2023-05-25T01:31:51;100922.84;;;7.41;90.74
29569;BME280;16501;51.462;14.346;2023-05-25T01:34:18;100898.84;;;7.27;90.07
29569;BME280;16501;51.462;14.346;2023-05-25T01:36:45;100909.06;;;7.33;90.73
29569;BME280;16501;51.462;14.346;2023-05-25T01:39:10;100893.88;;;7.18;91.22
29569;BME280;16501;51.462;14.346;2023-05-25T01:41:36;100903.28;;;7.24;91.18
29569;BME280;16501;51.462;14.346;2023-05-25T01:44:02;100901.00;;;7.19;90.49
29569;BME280;16501;51.462;14.346;2023-05-25T01:46:36;100907.47;;;7.16;90.68
29569;BME280;16501;51.462;14.346;2023-05-25T01:51:50;100894.13;;;7.07;90.46
29569;BME280;16501;51.462;14.346;2023-05-25T01:54:20;100911.31;;;7.22;90.58
29569;BME280;16501;51.462;14.346;2023-05-25T01:56:48;100891.84;;;7.02;90.41
29569;BME280;16501;51.462;14.346;2023-05-25T01:59:19;100915.28;;;7.05;90.23
29569;BME280;16501;51.462;14.346;2023-05-25T02:01:45;100908.41;;;7.09;90.15
29569;BME280;16501;51.462;14.346;2023-05-25T02:04:13;100901.50;;;6.97;90.71
29569;BME280;16501;51.462;14.346;2023-05-25T02:06:38;100912.41;;;7.08;90.25
29569;BME280;16501;51.462;14.346;2023-05-25T02:09:04;100885.09;;;6.83;90.22
29569;BME280;16501;51.462;14.346;2023-05-25T02:11:29;100883.88;;;6.84;90.50
29569;BME280;16501;51.462;14.346;2023-05-25T02:13:54;100904.13;;;6.88;90.54
29569;BME280;16501;51.462;14.346;2023-05-25T02:16:19;100893.13;;;6.81;90.52
29569;BME280;16501;51.462;14.346;2023-05-25T02:18:45;100899.47;;;6.82;90.61
29569;BME280;16501;51.462;14.346;2023-05-25T02:21:11;100909.69;;;6.88;91.01
29569;BME280;16501;51.462;14.346;2023-05-25T02:23:36;100916.03;;;6.89;91.52
29569;BME280;16501;51.462;14.346;2023-05-25T02:26:01;100911.66;;;6.88;92.05
29569;BME280;16501;51.462;14.346;2023-05-25T02:28:26;100899.72;;;6.71;92.27
29569;BME280;16501;51.462;14.346;2023-05-25T02:30:52;100901.25;;;6.72;92.87
29569;BME280;16501;51.462;14.346;2023-05-25T02:33:17;100892.63;;;6.66;94.48
29569;BME280;16501;51.462;14.346;2023-05-25T02:35:43;100894.28;;;6.64;95.04
29569;BME280;16501;51.462;14.346;2023-05-25T02:38:08;100888.72;;;6.64;94.95
29569;BME280;16501;51.462;14.346;2023-05-25T02:40:36;100888.34;;;6.61;94.99
29569;BME280;16501;51.462;14.346;2023-05-25T02:43:01;100917.13;;;6.75;95.17
29569;BME280;16501;51.462;14.346;2023-05-25T02:45:26;100892.00;;;6.58;94.32
29569;BME280;16501;51.462;14.346;2023-05-25T02:47:51;100916.78;;;6.73;94.07
29569;BME280;16501;51.462;14.346;2023-05-25T02:50:17;100923.78;;;6.61;94.58
29569;BME280;16501;51.462;14.346;2023-05-25T02:52:42;100910.50;;;6.49;94.22
29569;BME280;16501;51.462;14.346;2023-05-25T02:55:08;100903.28;;;6.51;94.35
29569;BME280;16501;51.462;14.346;2023-05-25T02:57:34;100893.00;;;6.48;94.00
29569;BME280;16501;51.462;14.346;2023-05-25T03:00:01;100873.06;;;6.30;93.58
29569;BME280;16501;51.462;14.346;2023-05-25T03:02:26;100898.72;;;6.41;94.07
29569;BME280;16501;51.462;14.346;2023-05-25T03:04:53;100895.56;;;6.39;94.38
29569;BME280;16501;51.462;14.346;2023-05-25T03:07:18;100884.56;;;6.32;94.38
29569;BME280;16501;51.462;14.346;2023-05-25T03:09:44;100910.94;;;6.47;94.32
29569;BME280;16501;51.462;14.346;2023-05-25T03:12:10;100926.22;;;6.59;94.12
29569;BME280;16501;51.462;14.346;2023-05-25T03:14:35;100927.16;;;6.52;93.51
29569;BME280;16501;51.462;14.346;2023-05-25T03:17:00;100924.50;;;6.45;93.56
29569;BME280;16501;51.462;14.346;2023-05-25T03:19:25;100923.31;;;6.46;94.83
29569;BME280;16501;51.462;14.346;2023-05-25T03:21:51;100902.94;;;6.29;95.23
29569;BME280;16501;51.462;14.346;2023-05-25T03:24:16;100917.50;;;6.37;95.22
29569;BME280;16501;51.462;14.346;2023-05-25T03:26:41;100936.34;;;6.49;95.35
29569;BME280;16501;51.462;14.346;2023-05-25T03:29:06;100940.72;;;6.50;95.71
29569;BME280;16501;51.462;14.346;2023-05-25T03:31:32;100916.84;;;6.29;96.54
29569;BME280;16501;51.462;14.346;2023-05-25T03:33:57;100935.28;;;6.43;96.26
29569;BME280;16501;51.462;14.346;2023-05-25T03:36:22;100936.06;;;6.44;95.98
29569;BME280;16501;51.462;14.346;2023-05-25T03:38:51;100945.63;;;6.42;96.00
29569;BME280;16501;51.462;14.346;2023-05-25T03:41:17;100921.13;;;6.34;96.35
29569;BME280;16501;51.462;14.346;2023-05-25T03:43:42;100943.16;;;6.48;95.86
29569;BME280;16501;51.462;14.346;2023-05-25T03:46:07;100950.13;;;6.56;96.47
29569;BME280;16501;51.462;14.346;2023-05-25T03:48:35;100918.06;;;6.28;97.23
29569;BME280;16501;51.462;14.346;2023-05-25T03:51:00;100936.84;;;6.44;97.45
29569;BME280;16501;51.462;14.346;2023-05-25T03:53:25;100954.16;;;6.55;98.02
29569;BME280;16501;51.462;14.346;2023-05-25T03:55:51;100933.34;;;6.40;98.37
29569;BME280;16501;51.462;14.346;2023-05-25T03:58:16;100958.16;;;6.54;97.97
29569;BME280;16501;51.462;14.346;2023-05-25T04:00:42;100957.16;;;6.65;98.34
29569;BME280;16501;51.462;14.346;2023-05-25T04:03:07;100969.81;;;6.69;98.25
29569;BME280;16501;51.462;14.346;2023-05-25T04:05:34;100943.38;;;6.57;99.49
29569;BME280;16501;51.462;14.346;2023-05-25T04:08:01;100960.13;;;6.74;100.00
29569;BME280;16501;51.462;14.346;2023-05-25T04:10:27;100939.66;;;6.64;100.00
29569;BME280;16501;51.462;14.346;2023-05-25T04:12:52;100946.28;;;6.70;100.00
29569;BME280;16501;51.462;14.346;2023-05-25T04:15:20;100975.72;;;6.91;100.00
29569;BME280;16501;51.462;14.346;2023-05-25T04:17:46;100961.34;;;6.93;100.00
29569;BME280;16501;51.462;14.346;2023-05-25T04:20:11;100970.13;;;6.91;100.00
29569;BME280;16501;51.462;14.346;2023-05-25T04:22:36;100954.47;;;6.97;100.00
29569;BME280;16501;51.462;14.346;2023-05-25T04:25:04;100968.09;;;7.12;100.00
29569;BME280;16501;51.462;14.346;2023-05-25T04:27:30;100957.81;;;7.09;100.00
29569;BME280;16501;51.462;14.346;2023-05-25T04:29:57;100976.69;;;7.21;100.00
29569;BME280;16501;51.462;14.346;2023-05-25T04:32:23;100969.03;;;7.25;100.00
29569;BME280;16501;51.462;14.346;2023-05-25T04:34:49;100971.91;;;7.38;100.00
29569;BME280;16501;51.462;14.346;2023-05-25T04:37:14;100970.53;;;7.30;100.00
29569;BME280;16501;51.462;14.346;2023-05-25T04:39:41;100956.78;;;7.19;100.00
29569;BME280;16501;51.462;14.346;2023-05-25T04:42:06;100978.81;;;7.33;100.00
29569;BME280;16501;51.462;14.346;2023-05-25T04:44:32;100963.63;;;7.34;100.00
29569;BME280;16501;51.462;14.346;2023-05-25T04:46:57;100971.94;;;7.54;100.00
29569;BME280;16501;51.462;14.346;2023-05-25T04:49:26;100981.44;;;7.57;100.00
29569;BME280;16501;51.462;14.346;2023-05-25T04:51:52;100969.06;;;7.58;100.00
29569;BME280;16501;51.462;14.346;2023-05-25T04:54:17;100978.78;;;7.70;100.00
29569;BME280;16501;51.462;14.346;2023-05-25T04:56:43;100971.59;;;7.69;100.00
29569;BME280;16501;51.462;14.346;2023-05-25T04:59:08;100959.22;;;7.70;100.00
29569;BME280;16501;51.462;14.346;2023-05-25T05:01:34;100964.28;;;7.75;100.00
29569;BME280;16501;51.462;14.346;2023-05-25T05:04:04;100969.69;;;7.82;100.00
29569;BME280;16501;51.462;14.346;2023-05-25T05:06:30;100955.97;;;7.88;100.00
29569;BME280;16501;51.462;14.346;2023-05-25T05:08:56;100960.88;;;7.84;100.00
29569;BME280;16501;51.462;14.346;2023-05-25T05:11:21;100971.84;;;8.07;100.00
29569;BME280;16501;51.462;14.346;2023-05-25T05:13:47;100968.19;;;8.10;100.00
29569;BME280;16501;51.462;14.346;2023-05-25T05:16:14;100955.84;;;8.08;100.00
29569;BME280;16501;51.462;14.346;2023-05-25T05:18:40;100950.13;;;8.15;100.00
29569;BME280;16501;51.462;14.346;2023-05-25T05:21:05;100965.16;;;8.34;100.00
29569;BME280;16501;51.462;14.346;2023-05-25T05:23:30;100951.53;;;8.36;100.00
29569;BME280;16501;51.462;14.346;2023-05-25T05:25:57;100924.13;;;8.31;100.00
29569;BME280;16501;51.462;14.346;2023-05-25T05:28:23;100966.53;;;8.59;100.00
29569;BME280;16501;51.462;14.346;2023-05-25T05:30:51;100959.25;;;8.61;100.00
29569;BME280;16501;51.462;14.346;2023-05-25T05:33:16;100955.91;;;8.66;100.00
29569;BME280;16501;51.462;14.346;2023-05-25T05:35:42;100976.56;;;8.98;100.00
29569;BME280;16501;51.462;14.346;2023-05-25T05:38:08;100974.03;;;9.04;100.00
29569;BME280;16501;51.462;14.346;2023-05-25T05:40:33;100970.56;;;9.13;100.00
29569;BME280;16501;51.462;14.346;2023-05-25T05:42:59;100982.00;;;9.18;100.00
29569;BME280;16501;51.462;14.346;2023-05-25T05:45:24;100972.59;;;9.25;100.00
29569;BME280;16501;51.462;14.346;2023-05-25T05:47:49;100964.97;;;9.38;100.00
29569;BME280;16501;51.462;14.346;2023-05-25T05:50:15;100976.63;;;9.62;100.00
29569;BME280;16501;51.462;14.346;2023-05-25T05:52:40;100983.56;;;9.71;100.00
29569;BME280;16501;51.462;14.346;2023-05-25T05:55:05;100976.50;;;9.79;100.00
29569;BME280;16501;51.462;14.346;2023-05-25T05:57:31;100972.22;;;9.87;100.00
29569;BME280;16501;51.462;14.346;2023-05-25T05:59:57;100990.44;;;10.05;100.00
29569;BME280;16501;51.462;14.346;2023-05-25T06:02:22;101001.31;;;10.15;100.00
29569;BME280;16501;51.462;14.346;2023-05-25T06:04:47;100984.06;;;10.04;100.00
29569;BME280;16501;51.462;14.346;2023-05-25T06:07:12;100977.56;;;10.07;100.00
29569;BME280;16501;51.462;14.346;2023-05-25T06:09:38;100969.50;;;10.09;100.00
29569;BME280;16501;51.462;14.346;2023-05-25T06:12:03;100985.28;;;10.16;100.00
29569;BME280;16501;51.462;14.346;2023-05-25T06:14:28;100992.66;;;10.35;100.00
29569;BME280;16501;51.462;14.346;2023-05-25T06:16:54;101007.34;;;10.62;100.00
29569;BME280;16501;51.462;14.346;2023-05-25T06:19:19;100988.72;;;10.68;100.00
29569;BME280;16501;51.462;14.346;2023-05-25T06:21:44;100988.91;;;10.73;100.00
29569;BME280;16501;51.462;14.346;2023-05-25T06:24:10;100971.53;;;10.88;100.00
29569;BME280;16501;51.462;14.346;2023-05-25T06:26:35;100969.75;;;11.03;100.00
29569;BME280;16501;51.462;14.346;2023-05-25T06:29:00;100994.31;;;11.21;100.00
29569;BME280;16501;51.462;14.346;2023-05-25T06:31:26;101007.88;;;11.45;100.00
29569;BME280;16501;51.462;14.346;2023-05-25T06:33:51;100979.16;;;11.41;100.00
29569;BME280;16501;51.462;14.346;2023-05-25T06:36:16;101002.47;;;11.60;100.00
29569;BME280;16501;51.462;14.346;2023-05-25T06:38:41;101012.41;;;11.83;100.00
29569;BME280;16501;51.462;14.346;2023-05-25T06:41:07;101023.06;;;11.97;100.00
29569;BME280;16501;51.462;14.346;2023-05-25T06:43:33;101024.81;;;12.04;100.00
29569;BME280;16501;51.462;14.346;2023-05-25T06:45:59;100996.34;;;11.93;100.00
29569;BME280;16501;51.462;14.346;2023-05-25T06:48:24;100987.16;;;11.92;100.00
29569;BME280;16501;51.462;14.346;2023-05-25T06:50:49;101019.38;;;12.19;100.00
29569;BME280;16501;51.462;14.346;2023-05-25T06:53:15;101013.94;;;12.24;98.68
29569;BME280;16501;51.462;14.346;2023-05-25T06:55:41;101014.53;;;12.38;99.61
29569;BME280;16501;51.462;14.346;2023-05-25T06:58:06;100995.78;;;12.25;95.93
29569;BME280;16501;51.462;14.346;2023-05-25T07:00:32;101037.69;;;12.60;96.15
29569;BME280;16501;51.462;14.346;2023-05-25T07:02:57;101026.44;;;12.60;94.57
29569;BME280;16501;51.462;14.346;2023-05-25T07:05:22;101016.59;;;12.65;93.21
29569;BME280;16501;51.462;14.346;2023-05-25T07:07:47;101029.09;;;12.82;93.10
29569;BME280;16501;51.462;14.346;2023-05-25T07:10:13;101025.34;;;12.86;91.33
29569;BME280;16501;51.462;14.346;2023-05-25T07:12:38;101014.56;;;12.84;90.16
29569;BME280;16501;51.462;14.346;2023-05-25T07:15:04;101015.47;;;12.99;88.91
29569;BME280;16501;51.462;14.346;2023-05-25T07:17:30;101020.16;;;13.12;86.89
29569;BME280;16501;51.462;14.346;2023-05-25T07:19:55;101014.53;;;13.12;88.14
29569;BME280;16501;51.462;14.346;2023-05-25T07:22:20;101024.50;;;13.31;89.78
29569;BME280;16501;51.462;14.346;2023-05-25T07:24:47;101003.19;;;13.30;88.44
29569;BME280;16501;51.462;14.346;2023-05-25T07:27:13;101011.03;;;13.35;87.93
29569;BME280;16501;51.462;14.346;2023-05-25T07:29:38;101025.97;;;13.60;87.73
29569;BME280;16501;51.462;14.346;2023-05-25T07:32:04;101021.19;;;13.75;86.66
29569;BME280;16501;51.462;14.346;2023-05-25T07:34:29;101040.38;;;13.95;85.69
29569;BME280;16501;51.462;14.346;2023-05-25T07:36:55;101018.78;;;13.92;84.38
29569;BME280;16501;51.462;14.346;2023-05-25T07:39:20;101008.59;;;13.95;84.12
29569;BME280;16501;51.462;14.346;2023-05-25T07:41:45;101031.03;;;14.13;83.72
29569;BME280;16501;51.462;14.346;2023-05-25T07:44:10;101014.69;;;14.18;83.40
29569;BME280;16501;51.462;14.346;2023-05-25T07:46:36;101006.59;;;14.10;81.69
29569;BME280;16501;51.462;14.346;2023-05-25T07:49:01;101029.88;;;14.44;82.08
29569;BME280;16501;51.462;14.346;2023-05-25T07:51:28;101018.16;;;14.37;79.63
29569;BME280;16501;51.462;14.346;2023-05-25T07:53:53;101021.44;;;14.44;79.88
29569;BME280;16501;51.462;14.346;2023-05-25T07:56:20;101026.69;;;14.51;76.59
29569;BME280;16501;51.462;14.346;2023-05-25T07:58:46;101029.94;;;14.59;73.54
29569;BME280;16501;51.462;14.346;2023-05-25T08:01:11;101015.84;;;14.59;75.69
29569;BME280;16501;51.462;14.346;2023-05-25T08:03:36;101023.78;;;14.70;72.17
29569;BME280;16501;51.462;14.346;2023-05-25T08:06:02;101025.22;;;14.80;73.42
29569;BME280;16501;51.462;14.346;2023-05-25T08:08:27;101027.13;;;14.98;71.93
29569;BME280;16501;51.462;14.346;2023-05-25T08:10:52;101016.59;;;14.99;69.14
29569;BME280;16501;51.462;14.346;2023-05-25T08:13:17;101021.84;;;15.06;70.28
29569;BME280;16501;51.462;14.346;2023-05-25T08:15:43;101016.59;;;15.14;70.49
29569;BME280;16501;51.462;14.346;2023-05-25T08:18:08;101037.34;;;15.40;71.25
29569;BME280;16501;51.462;14.346;2023-05-25T08:20:33;101026.31;;;15.42;68.29
29569;BME280;16501;51.462;14.346;2023-05-25T08:22:59;101024.13;;;15.67;68.22
29569;BME280;16501;51.462;14.346;2023-05-25T08:25:25;101027.44;;;15.65;67.01
29569;BME280;16501;51.462;14.346;2023-05-25T08:27:51;101022.97;;;15.74;66.66
29569;BME280;16501;51.462;14.346;2023-05-25T08:30:16;101029.25;;;15.78;63.91
29569;BME280;16501;51.462;14.346;2023-05-25T08:32:41;101046.78;;;15.82;66.42
29569;BME280;16501;51.462;14.346;2023-05-25T08:35:07;101047.94;;;15.90;65.48
29569;BME280;16501;51.462;14.346;2023-05-25T08:37:32;101014.56;;;15.94;65.85
29569;BME280;16501;51.462;14.346;2023-05-25T08:39:58;101035.81;;;16.25;64.85
29569;BME280;16501;51.462;14.346;2023-05-25T08:42:26;101029.56;;;16.42;63.67
29569;BME280;16501;51.462;14.346;2023-05-25T08:44:52;101043.22;;;16.23;64.84
29569;BME280;16501;51.462;14.346;2023-05-25T08:47:21;101041.97;;;15.88;63.59
29569;BME280;16501;51.462;14.346;2023-05-25T08:49:48;101046.06;;;15.87;64.61
29569;BME280;16501;51.462;14.346;2023-05-25T08:52:20;101039.41;;;16.26;65.01
29569;BME280;16501;51.462;14.346;2023-05-25T08:54:46;101034.69;;;16.37;61.44
29569;BME280;16501;51.462;14.346;2023-05-25T08:57:22;101046.34;;;16.45;61.88
29569;BME280;16501;51.462;14.346;2023-05-25T09:00:03;101037.91;;;16.71;63.05
29569;BME280;16501;51.462;14.346;2023-05-25T09:02:38;101036.88;;;16.48;61.42
29569;BME280;16501;51.462;14.346;2023-05-25T09:05:07;101035.66;;;16.55;60.97
29569;BME280;16501;51.462;14.346;2023-05-25T09:07:34;101024.91;;;16.18;61.93
29569;BME280;16501;51.462;14.346;2023-05-25T09:10:00;101020.72;;;16.13;62.89
29569;BME280;16501;51.462;14.346;2023-05-25T09:12:28;101041.38;;;16.19;62.61
29569;BME280;16501;51.462;14.346;2023-05-25T09:14:54;101033.72;;;16.05;64.29
29569;BME280;16501;51.462;14.346;2023-05-25T09:17:19;101039.81;;;15.83;64.73
29569;BME280;16501;51.462;14.346;2023-05-25T09:19:45;101040.91;;;15.71;66.16
29569;BME280;16501;51.462;14.346;2023-05-25T09:22:11;101054.16;;;15.79;67.07
29569;BME280;16501;51.462;14.346;2023-05-25T09:24:36;101050.59;;;15.64;66.13
29569;BME280;16501;51.462;14.346;2023-05-25T09:27:02;101046.09;;;15.42;65.01
29569;BME280;16501;51.462;14.346;2023-05-25T09:29:30;101049.91;;;15.54;65.43
29569;BME280;16501;51.462;14.346;2023-05-25T09:31:56;101035.50;;;15.52;66.21
29569;BME280;16501;51.462;14.346;2023-05-25T09:34:21;101037.91;;;15.59;66.93
29569;BME280;16501;51.462;14.346;2023-05-25T09:36:46;101035.44;;;15.67;65.40
29569;BME280;16501;51.462;14.346;2023-05-25T09:39:12;101037.44;;;16.11;63.88
29569;BME280;16501;51.462;14.346;2023-05-25T09:41:41;101050.81;;;16.52;60.59
29569;BME280;16501;51.462;14.346;2023-05-25T09:44:07;101058.84;;;16.80;58.00
29569;BME280;16501;51.462;14.346;2023-05-25T09:46:33;101053.63;;;16.93;53.53
29569;BME280;16501;51.462;14.346;2023-05-25T09:49:02;101056.56;;;17.04;53.52
29569;BME280;16501;51.462;14.346;2023-05-25T09:51:27;101055.03;;;17.29;53.95
29569;BME280;16501;51.462;14.346;2023-05-25T09:53:55;101045.63;;;17.44;54.19
29569;BME280;16501;51.462;14.346;2023-05-25T09:56:20;101055.50;;;17.54;53.84
29569;BME280;16501;51.462;14.346;2023-05-25T09:58:46;101057.59;;;17.59;55.45
29569;BME280;16501;51.462;14.346;2023-05-25T10:01:13;101033.59;;;17.55;56.96
29569;BME280;16501;51.462;14.346;2023-05-25T10:03:44;101060.72;;;17.99;55.90
29569;BME280;16501;51.462;14.346;2023-05-25T10:06:10;101052.56;;;18.12;54.44
29569;BME280;16501;51.462;14.346;2023-05-25T10:08:36;101061.94;;;18.24;53.45
29569;BME280;16501;51.462;14.346;2023-05-25T10:11:02;101034.56;;;18.21;53.58
29569;BME280;16501;51.462;14.346;2023-05-25T10:13:29;101045.88;;;18.15;56.32
29569;BME280;16501;51.462;14.346;2023-05-25T10:15:56;101048.16;;;17.74;53.46
29569;BME280;16501;51.462;14.346;2023-05-25T10:18:25;101069.44;;;17.58;54.76
29569;BME280;16501;51.462;14.346;2023-05-25T10:20:57;101062.66;;;17.49;54.74
29569;BME280;16501;51.462;14.346;2023-05-25T10:23:26;101053.25;;;17.96;54.83
29569;BME280;16501;51.462;14.346;2023-05-25T10:25:57;101048.78;;;18.26;53.27
29569;BME280;16501;51.462;14.346;2023-05-25T10:28:30;101057.72;;;18.62;52.75
29569;BME280;16501;51.462;14.346;2023-05-25T10:30:58;101041.19;;;18.66;49.71
29569;BME280;16501;51.462;14.346;2023-05-25T10:33:24;101057.81;;;18.85;50.21
29569;BME280;16501;51.462;14.346;2023-05-25T10:35:50;101042.50;;;18.71;48.15
29569;BME280;16501;51.462;14.346;2023-05-25T10:38:16;101048.28;;;18.99;49.16
29569;BME280;16501;51.462;14.346;2023-05-25T10:40:43;101061.22;;;19.17;51.16
29569;BME280;16501;51.462;14.346;2023-05-25T10:43:13;101040.81;;;19.13;49.19
29569;BME280;16501;51.462;14.346;2023-05-25T10:45:39;101037.97;;;19.19;48.45
29569;BME280;16501;51.462;14.346;2023-05-25T10:48:06;101016.53;;;19.18;49.16
29569;BME280;16501;51.462;14.346;2023-05-25T10:50:34;101027.66;;;19.27;48.74
29569;BME280;16501;51.462;14.346;2023-05-25T10:53:07;101043.16;;;19.49;49.75
29569;BME280;16501;51.462;14.346;2023-05-25T10:55:43;101043.94;;;19.66;50.04
29569;BME280;16501;51.462;14.346;2023-05-25T10:58:13;101032.53;;;19.66;48.08
29569;BME280;16501;51.462;14.346;2023-05-25T11:00:39;101031.78;;;19.20;49.27
29569;BME280;16501;51.462;14.346;2023-05-25T11:03:05;101037.72;;;19.17;50.05
29569;BME280;16501;51.462;14.346;2023-05-25T11:05:31;101037.69;;;19.00;51.60
29569;BME280;16501;51.462;14.346;2023-05-25T11:07:58;101041.75;;;18.71;50.68
29569;BME280;16501;51.462;14.346;2023-05-25T11:10:50;101040.63;;;18.51;51.33
29569;BME280;16501;51.462;14.346;2023-05-25T11:16:20;101032.25;;;18.96;50.82
29569;BME280;16501;51.462;14.346;2023-05-25T11:18:57;101017.31;;;19.18;51.66
29569;BME280;16501;51.462;14.346;2023-05-25T11:26:21;101019.88;;;19.90;48.01
29569;BME280;16501;51.462;14.346;2023-05-25T11:28:47;101033.06;;;19.93;46.31
29569;BME280;16501;51.462;14.346;2023-05-25T11:31:13;101015.22;;;19.98;48.27
29569;BME280;16501;51.462;14.346;2023-05-25T11:33:39;101033.63;;;19.74;47.69
29569;BME280;16501;51.462;14.346;2023-05-25T11:36:07;101009.28;;;19.62;46.73
29569;BME280;16501;51.462;14.346;2023-05-25T11:38:32;101015.72;;;20.02;48.81
29569;BME280;16501;51.462;14.346;2023-05-25T11:40:57;101008.22;;;19.93;48.37
29569;BME280;16501;51.462;14.346;2023-05-25T11:43:24;101016.03;;;19.87;46.08
29569;BME280;16501;51.462;14.346;2023-05-25T11:45:59;101008.78;;;19.58;46.35
29569;BME280;16501;51.462;14.346;2023-05-25T11:48:26;101003.84;;;19.87;46.98
29569;BME280;16501;51.462;14.346;2023-05-25T11:51:05;101000.16;;;20.09;45.13
29569;BME280;16501;51.462;14.346;2023-05-25T11:53:30;100993.94;;;20.16;44.28
29569;BME280;16501;51.462;14.346;2023-05-25T11:55:56;100987.00;;;20.00;43.86
29569;BME280;16501;51.462;14.346;2023-05-25T11:58:21;101004.75;;;20.23;43.18
29569;BME280;16501;51.462;14.346;2023-05-25T12:00:47;100998.44;;;20.47;43.57
29569;BME280;16501;51.462;14.346;2023-05-25T12:03:32;100982.59;;;20.58;44.09
29569;BME280;16501;51.462;14.346;2023-05-25T12:05:58;100985.78;;;20.48;45.27
29569;BME280;16501;51.462;14.346;2023-05-25T12:08:33;101010.34;;;20.51;44.48
29569;BME280;16501;51.462;14.346;2023-05-25T12:10:58;101011.03;;;20.10;44.57
29569;BME280;16501;51.462;14.346;2023-05-25T12:13:23;100979.28;;;19.72;45.41
29569;BME280;16501;51.462;14.346;2023-05-25T12:15:54;100995.28;;;19.98;44.19
29569;BME280;16501;51.462;14.346;2023-05-25T12:18:19;100980.97;;;20.15;44.08
29569;BME280;16501;51.462;14.346;2023-05-25T12:20:45;100981.69;;;20.38;44.47
29569;BME280;16501;51.462;14.346;2023-05-25T12:23:11;100974.09;;;20.46;44.50
29569;BME280;16501;51.462;14.346;2023-05-25T12:25:36;100967.53;;;20.68;42.91
29569;BME280;16501;51.462;14.346;2023-05-25T12:28:09;100975.31;;;20.68;41.54
29569;BME280;16501;51.462;14.346;2023-05-25T12:30:35;100965.47;;;20.69;42.39
29569;BME280;16501;51.462;14.346;2023-05-25T12:33:00;100961.50;;;20.78;43.58
29569;BME280;16501;51.462;14.346;2023-05-25T12:35:30;100971.16;;;20.69;42.39
29569;BME280;16501;51.462;14.346;2023-05-25T12:38:14;100959.94;;;20.35;42.77
29569;BME280;16501;51.462;14.346;2023-05-25T12:40:40;100980.44;;;20.28;44.66
29569;BME280;16501;51.462;14.346;2023-05-25T12:43:05;100928.75;;;20.07;43.57
29569;BME280;16501;51.462;14.346;2023-05-25T12:45:31;100950.84;;;20.42;43.71
29569;BME280;16501;51.462;14.346;2023-05-25T12:47:57;100962.38;;;20.67;43.22
29569;BME280;16501;51.462;14.346;2023-05-25T12:50:22;100958.88;;;20.85;42.50